Arriaga, Mexico

2:09 PM CDT on August 03, 2015 (GMT -0500)
Francisco Sarabia | | Change Station
CLOSE
Current Station
Airport
Location: Tuxtla Gutierrez,
Elevation: 1516 ft
Nearby Weather Stations

Elev 1516 ft 16.56 °N, 93.03 °W | Updated 20 minutes ago

Scattered Clouds
Scattered Clouds
90 °F
Feels Like 90 °F
N
5
Wind Variable Wind from ENE

Today
High -- | Low -- °F
--% Chance of Precip.
Yesterday
High -- | Low -- °F
Precip. -- in
6:57 AM 7:46 PM
Waning Gibbous, 85% visible
Pressure 29.86 in
Visibility 10.0 miles
Clouds Scattered Clouds 2000 ft
Scattered Clouds 30000 ft
Heat Index 90 °F
Dew Point 63 °F
Humidity 40%
Rainfall 0.00 in
Snow Depth Not available.
UV 10 out of 12
Pollen Not available.
Air Quality Not available.
Flu Activity Not available.
METAR MMTG 031849Z 06004KT 10SM SCT020 SCT300 32/17 A2986 RMK 8/102 TCU FRMG / CB DSTNT E

More Conditions Fewer Conditions

Pressure 29.86 in
Visibility 10.0 miles
Clouds Scattered Clouds 2000 ft
Scattered Clouds 30000 ft
Heat Index 90 °F
Dew Point 63 °F
Humidity 40%
Rainfall 0.00 in
Snow Depth Not available.
UV 10 out of 12
Pollen Not available.
Air Quality Not available.
Flu Activity Not available.
METAR MMTG 031849Z 06004KT 10SM SCT020 SCT300 32/17 A2986 RMK 8/102 TCU FRMG / CB DSTNT E

More Conditions Fewer Conditions

10-Day Weather Forecast

×

Almanac

Astronomy

Aug. 03, 2015 Rise Set
Actual Time
Civil Twilight
Nautical Twilight
Astronomical Twilight
Moon
Length of Visible Light
Length of Day
Tomorrow will be .
, % of the Moon is Illuminated

Today's Extremes

Country Highs Country Lows

Community

WunderPhotos

Upload Photos

1,843,707 photos uploaded!

WunderBlogs® & News

Nearby

Air Quality

  Air Quality AQ Index Pollutant
Not available.

Snow Depth

Station Depth Elevation

Earthquake Activity

City Distance Mag. Time & Date
Minimum magnitude displayed is 2.5.

Coastal Water Temperatures

Place Temperature

Stations

Nearby Weather Stations

Station Location Temp. Windchill Dew Point Humidity Wind Precip. Elev Updated Type